sensor_id;sensor_type;location;lat;lon;timestamp;pressure;altitude;pressure_sealevel;temperature;humidity
63395;BME280;49531;-34.520;150.798;2023-01-25T00:00:40;100398.31;;;24.70;65.83
63395;BME280;49531;-34.520;150.798;2023-01-25T00:03:07;100393.06;;;24.74;65.72
63395;BME280;49531;-34.520;150.798;2023-01-25T00:05:35;100405.84;;;24.78;65.51
63395;BME280;49531;-34.520;150.798;2023-01-25T00:08:21;100403.28;;;24.82;65.64
63395;BME280;49531;-34.520;150.798;2023-01-25T00:10:50;100398.78;;;24.91;65.47
63395;BME280;49531;-34.520;150.798;2023-01-25T00:13:17;100401.69;;;25.00;65.18
63395;BME280;49531;-34.520;150.798;2023-01-25T00:15:44;100403.44;;;25.09;65.47
63395;BME280;49531;-34.520;150.798;2023-01-25T00:18:11;100403.88;;;25.16;65.27
63395;BME280;49531;-34.520;150.798;2023-01-25T00:20:38;100407.53;;;25.25;65.46
63395;BME280;49531;-34.520;150.798;2023-01-25T00:23:05;100403.00;;;25.35;65.16
63395;BME280;49531;-34.520;150.798;2023-01-25T00:25:32;100408.81;;;25.47;65.10
63395;BME280;49531;-34.520;150.798;2023-01-25T00:28:00;100414.19;;;25.52;64.96
63395;BME280;49531;-34.520;150.798;2023-01-25T00:30:27;100400.94;;;25.59;64.95
63395;BME280;49531;-34.520;150.798;2023-01-25T00:33:01;100401.34;;;25.66;64.89
63395;BME280;49531;-34.520;150.798;2023-01-25T00:35:34;100405.00;;;25.75;64.55
63395;BME280;49531;-34.520;150.798;2023-01-25T00:38:02;100397.50;;;25.81;64.40
63395;BME280;49531;-34.520;150.798;2023-01-25T00:40:32;100403.69;;;25.86;64.39
63395;BME280;49531;-34.520;150.798;2023-01-25T00:42:59;100399.94;;;25.96;64.44
63395;BME280;49531;-34.520;150.798;2023-01-25T00:45:26;100388.41;;;25.99;64.11
63395;BME280;49531;-34.520;150.798;2023-01-25T00:47:54;100382.19;;;26.07;64.22
63395;BME280;49531;-34.520;150.798;2023-01-25T00:50:21;100399.31;;;26.13;63.93
63395;BME280;49531;-34.520;150.798;2023-01-25T00:52:48;100382.28;;;26.16;63.97
63395;BME280;49531;-34.520;150.798;2023-01-25T00:55:15;100382.47;;;26.19;63.68
63395;BME280;49531;-34.520;150.798;2023-01-25T00:57:42;100384.00;;;26.25;63.78
63395;BME280;49531;-34.520;150.798;2023-01-25T01:00:10;100381.44;;;26.29;63.67
63395;BME280;49531;-34.520;150.798;2023-01-25T01:02:37;100381.06;;;26.36;63.38
63395;BME280;49531;-34.520;150.798;2023-01-25T01:05:04;100373.22;;;26.43;61.25
63395;BME280;49531;-34.520;150.798;2023-01-25T01:07:32;100364.50;;;26.41;62.26
63395;BME280;49531;-34.520;150.798;2023-01-25T01:10:00;100375.13;;;26.42;62.28
63395;BME280;49531;-34.520;150.798;2023-01-25T01:12:27;100373.41;;;26.46;62.47
63395;BME280;49531;-34.520;150.798;2023-01-25T01:14:54;100371.47;;;26.47;62.21
63395;BME280;49531;-34.520;150.798;2023-01-25T01:17:21;100368.44;;;26.48;61.99
63395;BME280;49531;-34.520;150.798;2023-01-25T01:19:48;100364.56;;;26.49;62.02
63395;BME280;49531;-34.520;150.798;2023-01-25T01:22:15;100357.97;;;26.50;61.23
63395;BME280;49531;-34.520;150.798;2023-01-25T01:24:43;100354.13;;;26.51;62.05
63395;BME280;49531;-34.520;150.798;2023-01-25T01:27:10;100353.00;;;26.52;62.06
63395;BME280;49531;-34.520;150.798;2023-01-25T01:29:37;100362.53;;;26.55;61.67
63395;BME280;49531;-34.520;150.798;2023-01-25T01:32:04;100365.16;;;26.60;61.22
63395;BME280;49531;-34.520;150.798;2023-01-25T01:34:31;100353.06;;;26.61;60.24
63395;BME280;49531;-34.520;150.798;2023-01-25T01:36:58;100352.88;;;26.57;60.86
63395;BME280;49531;-34.520;150.798;2023-01-25T01:39:26;100348.53;;;26.56;60.77
63395;BME280;49531;-34.520;150.798;2023-01-25T01:41:53;100351.75;;;26.58;60.86
63395;BME280;49531;-34.520;150.798;2023-01-25T01:44:39;100344.03;;;26.61;61.01
63395;BME280;49531;-34.520;150.798;2023-01-25T01:47:17;100341.63;;;26.59;60.40
63395;BME280;49531;-34.520;150.798;2023-01-25T01:49:52;100340.19;;;26.62;61.21
63395;BME280;49531;-34.520;150.798;2023-01-25T01:52:24;100318.47;;;26.65;60.67
63395;BME280;49531;-34.520;150.798;2023-01-25T01:54:58;100322.50;;;26.68;61.02
63395;BME280;49531;-34.520;150.798;2023-01-25T01:57:37;100325.75;;;26.70;60.82
63395;BME280;49531;-34.520;150.798;2023-01-25T02:00:13;100323.31;;;26.68;61.32
63395;BME280;49531;-34.520;150.798;2023-01-25T02:02:42;100335.78;;;26.74;61.38
63395;BME280;49531;-34.520;150.798;2023-01-25T02:05:16;100343.69;;;26.76;61.40
63395;BME280;49531;-34.520;150.798;2023-01-25T02:07:46;100341.75;;;26.76;61.44
63395;BME280;49531;-34.520;150.798;2023-01-25T02:10:15;100348.84;;;26.77;61.36
63395;BME280;49531;-34.520;150.798;2023-01-25T02:12:43;100327.75;;;26.78;61.54
63395;BME280;49531;-34.520;150.798;2023-01-25T02:15:11;100350.47;;;26.78;61.44
63395;BME280;49531;-34.520;150.798;2023-01-25T02:17:39;100339.66;;;26.82;61.52
63395;BME280;49531;-34.520;150.798;2023-01-25T02:20:25;100339.66;;;26.82;61.37
63395;BME280;49531;-34.520;150.798;2023-01-25T02:23:07;100333.06;;;26.83;61.41
63395;BME280;49531;-34.520;150.798;2023-01-25T02:25:36;100329.22;;;26.84;61.67
63395;BME280;49531;-34.520;150.798;2023-01-25T02:28:20;100322.59;;;26.85;61.38
63395;BME280;49531;-34.520;150.798;2023-01-25T02:30:49;100318.75;;;26.86;61.47
63395;BME280;49531;-34.520;150.798;2023-01-25T02:33:16;100321.97;;;26.88;61.32
63395;BME280;49531;-34.520;150.798;2023-01-25T02:35:46;100324.72;;;26.88;61.16
63395;BME280;49531;-34.520;150.798;2023-01-25T02:38:17;100330.69;;;26.90;61.05
63395;BME280;49531;-34.520;150.798;2023-01-25T02:40:54;100330.69;;;26.90;61.04
63395;BME280;49531;-34.520;150.798;2023-01-25T02:43:28;100321.34;;;26.91;60.65
63395;BME280;49531;-34.520;150.798;2023-01-25T02:46:08;100330.69;;;26.90;60.55
63395;BME280;49531;-34.520;150.798;2023-01-25T02:48:37;100326.84;;;26.91;60.27
63395;BME280;49531;-34.520;150.798;2023-01-25T02:51:08;100330.88;;;26.94;60.22
63395;BME280;49531;-34.520;150.798;2023-01-25T02:53:35;100328.16;;;26.94;59.96
63395;BME280;49531;-34.520;150.798;2023-01-25T02:56:03;100305.91;;;26.95;59.75
63395;BME280;49531;-34.520;150.798;2023-01-25T02:58:30;100302.88;;;26.97;59.77
63395;BME280;49531;-34.520;150.798;2023-01-25T03:00:58;100308.06;;;26.98;58.63
63395;BME280;49531;-34.520;150.798;2023-01-25T03:03:25;100319.50;;;27.00;58.54
63395;BME280;49531;-34.520;150.798;2023-01-25T03:05:52;100310.97;;;27.02;59.47
63395;BME280;49531;-34.520;150.798;2023-01-25T03:08:19;100307.91;;;27.03;59.37
63395;BME280;49531;-34.520;150.798;2023-01-25T03:10:47;100303.75;;;27.06;59.55
63395;BME280;49531;-34.520;150.798;2023-01-25T03:13:14;100312.66;;;27.11;59.42
63395;BME280;49531;-34.520;150.798;2023-01-25T03:15:41;100312.66;;;27.11;58.68
63395;BME280;49531;-34.520;150.798;2023-01-25T03:18:08;100311.53;;;27.12;59.35
63395;BME280;49531;-34.520;150.798;2023-01-25T03:20:35;100318.31;;;27.15;59.23
63395;BME280;49531;-34.520;150.798;2023-01-25T03:23:02;100314.13;;;27.17;59.07
63395;BME280;49531;-34.520;150.798;2023-01-25T03:25:29;100319.63;;;27.17;59.20
63395;BME280;49531;-34.520;150.798;2023-01-25T03:27:56;100302.84;;;27.19;59.18
63395;BME280;49531;-34.520;150.798;2023-01-25T03:30:23;100298.94;;;27.20;59.20
63395;BME280;49531;-34.520;150.798;2023-01-25T03:32:50;100301.69;;;27.20;59.21
63395;BME280;49531;-34.520;150.798;2023-01-25T03:35:18;100305.25;;;27.20;59.22
63395;BME280;49531;-34.520;150.798;2023-01-25T03:37:45;100301.06;;;27.23;59.37
63395;BME280;49531;-34.520;150.798;2023-01-25T03:40:12;100296.38;;;27.23;59.40
63395;BME280;49531;-34.520;150.798;2023-01-25T03:42:39;100299.94;;;27.24;59.74
63395;BME280;49531;-34.520;150.798;2023-01-25T03:45:07;100307.22;;;27.29;59.70
63395;BME280;49531;-34.520;150.798;2023-01-25T03:47:34;100308.34;;;27.28;59.05
63395;BME280;49531;-34.520;150.798;2023-01-25T03:50:01;100306.72;;;27.27;58.61
63395;BME280;49531;-34.520;150.798;2023-01-25T03:52:28;100303.50;;;27.24;59.14
63395;BME280;49531;-34.520;150.798;2023-01-25T03:55:03;100299.31;;;27.27;58.68
63395;BME280;49531;-34.520;150.798;2023-01-25T03:57:30;100299.00;;;27.29;58.71
63395;BME280;49531;-34.520;150.798;2023-01-25T03:59:57;100295.94;;;27.30;59.21
63395;BME280;49531;-34.520;150.798;2023-01-25T04:02:24;100289.00;;;27.33;59.42
63395;BME280;49531;-34.520;150.798;2023-01-25T04:04:52;100293.06;;;27.35;59.74
63395;BME280;49531;-34.520;150.798;2023-01-25T04:07:19;100293.72;;;27.41;59.79
63395;BME280;49531;-34.520;150.798;2023-01-25T04:09:46;100291.97;;;27.45;59.10
63395;BME280;49531;-34.520;150.798;2023-01-25T04:12:15;100290.34;;;27.44;58.61
63395;BME280;49531;-34.520;150.798;2023-01-25T04:14:42;100303.56;;;27.42;57.96
63395;BME280;49531;-34.520;150.798;2023-01-25T04:17:09;100287.88;;;27.34;57.81
63395;BME280;49531;-34.520;150.798;2023-01-25T04:19:36;100287.41;;;27.32;58.07
63395;BME280;49531;-34.520;150.798;2023-01-25T04:22:06;100283.84;;;27.31;58.12
63395;BME280;49531;-34.520;150.798;2023-01-25T04:24:34;100279.66;;;27.34;58.60
63395;BME280;49531;-34.520;150.798;2023-01-25T04:27:01;100280.16;;;27.36;58.46
63395;BME280;49531;-34.520;150.798;2023-01-25T04:29:28;100274.81;;;27.31;58.19
63395;BME280;49531;-34.520;150.798;2023-01-25T04:31:55;100274.34;;;27.37;57.67
63395;BME280;49531;-34.520;150.798;2023-01-25T04:34:22;100276.78;;;27.39;58.32
63395;BME280;49531;-34.520;150.798;2023-01-25T04:36:49;100281.63;;;27.42;58.09
63395;BME280;49531;-34.520;150.798;2023-01-25T04:39:16;100273.09;;;27.43;57.32
63395;BME280;49531;-34.520;150.798;2023-01-25T04:41:43;100276.94;;;27.42;57.11
63395;BME280;49531;-34.520;150.798;2023-01-25T04:44:11;100273.72;;;27.40;57.12
63395;BME280;49531;-34.520;150.798;2023-01-25T04:46:38;100276.94;;;27.42;57.68
63395;BME280;49531;-34.520;150.798;2023-01-25T04:49:05;100265.81;;;27.39;57.63
63395;BME280;49531;-34.520;150.798;2023-01-25T04:51:32;100276.59;;;27.35;57.94
63395;BME280;49531;-34.520;150.798;2023-01-25T04:53:59;100279.84;;;27.37;58.18
63395;BME280;49531;-34.520;150.798;2023-01-25T04:56:26;100286.31;;;27.41;58.42
63395;BME280;49531;-34.520;150.798;2023-01-25T04:58:53;100278.88;;;27.42;59.00
63395;BME280;49531;-34.520;150.798;2023-01-25T05:01:20;100270.03;;;27.45;59.29
63395;BME280;49531;-34.520;150.798;2023-01-25T05:03:47;100271.66;;;27.46;59.21
63395;BME280;49531;-34.520;150.798;2023-01-25T05:06:14;100269.69;;;27.38;59.52
63395;BME280;49531;-34.520;150.798;2023-01-25T05:08:41;100265.13;;;27.33;59.31
63395;BME280;49531;-34.520;150.798;2023-01-25T05:11:08;100256.59;;;27.35;59.26
63395;BME280;49531;-34.520;150.798;2023-01-25T05:13:36;100255.47;;;27.36;59.33
63395;BME280;49531;-34.520;150.798;2023-01-25T05:16:03;100268.06;;;27.37;59.18
63395;BME280;49531;-34.520;150.798;2023-01-25T05:18:31;100255.63;;;27.31;59.25
63395;BME280;49531;-34.520;150.798;2023-01-25T05:20:58;100251.06;;;27.26;59.83
63395;BME280;49531;-34.520;150.798;2023-01-25T05:23:25;100268.34;;;27.27;60.20
63395;BME280;49531;-34.520;150.798;2023-01-25T05:25:52;100258.00;;;27.23;60.63
63395;BME280;49531;-34.520;150.798;2023-01-25T05:28:31;100253.00;;;27.26;60.69
63395;BME280;49531;-34.520;150.798;2023-01-25T05:30:58;100260.59;;;27.29;60.66
63395;BME280;49531;-34.520;150.798;2023-01-25T05:33:25;100273.19;;;27.30;60.85
63395;BME280;49531;-34.520;150.798;2023-01-25T05:35:52;100270.41;;;27.21;60.76
63395;BME280;49531;-34.520;150.798;2023-01-25T05:38:19;100264.28;;;27.24;60.70
63395;BME280;49531;-34.520;150.798;2023-01-25T05:40:46;100265.91;;;27.25;60.67
63395;BME280;49531;-34.520;150.798;2023-01-25T05:43:13;100262.34;;;27.24;60.34
63395;BME280;49531;-34.520;150.798;2023-01-25T05:45:40;100262.53;;;27.28;60.49
63395;BME280;49531;-34.520;150.798;2023-01-25T05:48:07;100260.75;;;27.23;60.30
63395;BME280;49531;-34.520;150.798;2023-01-25T05:50:34;100255.09;;;27.20;60.77
63395;BME280;49531;-34.520;150.798;2023-01-25T05:53:01;100259.44;;;27.21;60.82
63395;BME280;49531;-34.520;150.798;2023-01-25T05:55:28;100251.72;;;27.23;61.03
63395;BME280;49531;-34.520;150.798;2023-01-25T05:57:56;100253.31;;;27.24;61.07
63395;BME280;49531;-34.520;150.798;2023-01-25T06:00:23;100247.22;;;27.27;61.14
63395;BME280;49531;-34.520;150.798;2023-01-25T06:02:50;100247.22;;;27.27;60.76
63395;BME280;49531;-34.520;150.798;2023-01-25T06:05:17;100254.31;;;27.28;60.54
63395;BME280;49531;-34.520;150.798;2023-01-25T06:07:44;100243.34;;;27.28;60.28
63395;BME280;49531;-34.520;150.798;2023-01-25T06:10:11;100241.41;;;27.29;60.33
63395;BME280;49531;-34.520;150.798;2023-01-25T06:12:38;100241.06;;;27.21;60.32
63395;BME280;49531;-34.520;150.798;2023-01-25T06:15:06;100240.41;;;27.24;60.24
63395;BME280;49531;-34.520;150.798;2023-01-25T06:17:34;100244.59;;;27.22;60.63
63395;BME280;49531;-34.520;150.798;2023-01-25T06:20:01;100244.94;;;27.20;60.61
63395;BME280;49531;-34.520;150.798;2023-01-25T06:22:28;100247.66;;;27.20;60.74
63395;BME280;49531;-34.520;150.798;2023-01-25T06:24:55;100248.31;;;27.17;60.58
63395;BME280;49531;-34.520;150.798;2023-01-25T06:27:22;100243.31;;;27.19;60.24
63395;BME280;49531;-34.520;150.798;2023-01-25T06:29:49;100242.19;;;27.20;60.28
63395;BME280;49531;-34.520;150.798;2023-01-25T06:32:16;100249.94;;;27.18;60.15
63395;BME280;49531;-34.520;150.798;2023-01-25T06:34:43;100253.63;;;27.14;59.65
63395;BME280;49531;-34.520;150.798;2023-01-25T06:37:11;100251.53;;;27.11;59.44
63395;BME280;49531;-34.520;150.798;2023-01-25T06:39:38;100264.28;;;27.15;59.57
63395;BME280;49531;-34.520;150.798;2023-01-25T06:42:05;100258.13;;;27.10;59.77
63395;BME280;49531;-34.520;150.798;2023-01-25T06:44:32;100258.94;;;27.10;60.23
63395;BME280;49531;-34.520;150.798;2023-01-25T06:47:00;100266.66;;;27.08;60.31
63395;BME280;49531;-34.520;150.798;2023-01-25T06:49:27;100257.31;;;27.09;60.20
63395;BME280;49531;-34.520;150.798;2023-01-25T06:51:54;100259.06;;;27.05;60.33
63395;BME280;49531;-34.520;150.798;2023-01-25T06:54:21;100259.38;;;27.04;60.38
63395;BME280;49531;-34.520;150.798;2023-01-25T06:56:48;100253.44;;;27.10;60.17
63395;BME280;49531;-34.520;150.798;2023-01-25T06:59:15;100262.34;;;27.16;60.25
63395;BME280;49531;-34.520;150.798;2023-01-25T07:01:43;100254.28;;;27.19;60.15
63395;BME280;49531;-34.520;150.798;2023-01-25T07:04:10;100254.63;;;27.18;60.21
63395;BME280;49531;-34.520;150.798;2023-01-25T07:06:38;100259.13;;;27.22;60.11
63395;BME280;49531;-34.520;150.798;2023-01-25T07:09:07;100249.59;;;27.20;60.34
63395;BME280;49531;-34.520;150.798;2023-01-25T07:11:35;100252.19;;;27.25;60.27
63395;BME280;49531;-34.520;150.798;2023-01-25T07:14:02;100262.84;;;27.27;60.17
63395;BME280;49531;-34.520;150.798;2023-01-25T07:16:31;100266.41;;;27.27;60.06
63395;BME280;49531;-34.520;150.798;2023-01-25T07:19:03;100268.84;;;27.29;60.09
63395;BME280;49531;-34.520;150.798;2023-01-25T07:21:31;100279.81;;;27.29;59.95
63395;BME280;49531;-34.520;150.798;2023-01-25T07:24:00;100274.81;;;27.31;59.87
63395;BME280;49531;-34.520;150.798;2023-01-25T07:26:29;100279.47;;;27.30;60.08
63395;BME280;49531;-34.520;150.798;2023-01-25T07:28:57;100277.56;;;27.31;60.02
63395;BME280;49531;-34.520;150.798;2023-01-25T07:31:25;100279.97;;;27.32;60.06
63395;BME280;49531;-34.520;150.798;2023-01-25T07:33:56;100289.00;;;27.33;59.98
63395;BME280;49531;-34.520;150.798;2023-01-25T07:36:24;100291.75;;;27.33;59.90
63395;BME280;49531;-34.520;150.798;2023-01-25T07:38:54;100297.25;;;27.33;59.81
63395;BME280;49531;-34.520;150.798;2023-01-25T07:41:22;100297.72;;;27.35;59.81
63395;BME280;49531;-34.520;150.798;2023-01-25T07:43:50;100293.38;;;27.34;59.89
63395;BME280;49531;-34.520;150.798;2023-01-25T07:46:17;100288.69;;;27.34;59.96
63395;BME280;49531;-34.520;150.798;2023-01-25T07:48:46;100293.38;;;27.34;59.92
63395;BME280;49531;-34.520;150.798;2023-01-25T07:51:15;100301.59;;;27.34;59.57
63395;BME280;49531;-34.520;150.798;2023-01-25T07:53:51;100304.84;;;27.36;59.87
63395;BME280;49531;-34.520;150.798;2023-01-25T07:56:20;100307.59;;;27.36;59.82
63395;BME280;49531;-34.520;150.798;2023-01-25T07:58:48;100310.31;;;27.36;59.86
63395;BME280;49531;-34.520;150.798;2023-01-25T08:01:17;100304.03;;;27.35;59.80
63395;BME280;49531;-34.520;150.798;2023-01-25T08:03:45;100315.00;;;27.35;59.95
63395;BME280;49531;-34.520;150.798;2023-01-25T08:06:13;100308.72;;;27.35;59.92
63395;BME280;49531;-34.520;150.798;2023-01-25T08:08:44;100316.94;;;27.35;59.92
63395;BME280;49531;-34.520;150.798;2023-01-25T08:11:18;100318.88;;;27.34;59.98
63395;BME280;49531;-34.520;150.798;2023-01-25T08:13:45;100315.31;;;27.34;59.98
63395;BME280;49531;-34.520;150.798;2023-01-25T08:16:17;100318.06;;;27.34;60.03
63395;BME280;49531;-34.520;150.798;2023-01-25T08:18:48;100318.88;;;27.34;59.96
63395;BME280;49531;-34.520;150.798;2023-01-25T08:21:16;100323.53;;;27.34;60.14
63395;BME280;49531;-34.520;150.798;2023-01-25T08:23:43;100341.13;;;27.33;60.23
63395;BME280;49531;-34.520;150.798;2023-01-25T08:26:12;100331.28;;;27.32;60.12
63395;BME280;49531;-34.520;150.798;2023-01-25T08:28:39;100334.03;;;27.32;60.04
63395;BME280;49531;-34.520;150.798;2023-01-25T08:31:16;100349.34;;;27.33;60.01
63395;BME280;49531;-34.520;150.798;2023-01-25T08:33:44;100345.13;;;27.27;59.98
63395;BME280;49531;-34.520;150.798;2023-01-25T08:36:13;100355.47;;;27.30;60.02
63395;BME280;49531;-34.520;150.798;2023-01-25T08:38:41;100356.59;;;27.29;59.89
63395;BME280;49531;-34.520;150.798;2023-01-25T08:41:11;100360.78;;;27.26;59.94
63395;BME280;49531;-34.520;150.798;2023-01-25T08:43:38;100364.31;;;27.27;59.79
63395;BME280;49531;-34.520;150.798;2023-01-25T08:46:06;100361.56;;;27.27;59.94
63395;BME280;49531;-34.520;150.798;2023-01-25T08:48:33;100365.44;;;27.26;59.85
63395;BME280;49531;-34.520;150.798;2023-01-25T08:51:01;100361.09;;;27.24;59.93
63395;BME280;49531;-34.520;150.798;2023-01-25T08:53:29;100371.56;;;27.22;59.84
63395;BME280;49531;-34.520;150.798;2023-01-25T08:56:03;100370.25;;;27.20;59.75
63395;BME280;49531;-34.520;150.798;2023-01-25T08:58:30;100376.53;;;27.20;59.69
63395;BME280;49531;-34.520;150.798;2023-01-25T09:01:02;100384.75;;;27.20;59.67
63395;BME280;49531;-34.520;150.798;2023-01-25T09:03:30;100377.66;;;27.19;59.79
63395;BME280;49531;-34.520;150.798;2023-01-25T09:05:57;100379.13;;;27.17;59.73
63395;BME280;49531;-34.520;150.798;2023-01-25T09:08:24;100392.03;;;27.16;59.57
63395;BME280;49531;-34.520;150.798;2023-01-25T09:10:51;100392.03;;;27.16;59.62
63395;BME280;49531;-34.520;150.798;2023-01-25T09:13:18;100405.25;;;27.14;59.63
63395;BME280;49531;-34.520;150.798;2023-01-25T09:15:45;100390.22;;;27.12;59.57
63395;BME280;49531;-34.520;150.798;2023-01-25T09:18:12;100409.41;;;27.12;59.64
63395;BME280;49531;-34.520;150.798;2023-01-25T09:20:41;100413.59;;;27.09;59.68
63395;BME280;49531;-34.520;150.798;2023-01-25T09:23:08;100410.84;;;27.09;59.76
63395;BME280;49531;-34.520;150.798;2023-01-25T09:25:35;100408.41;;;27.08;59.79
63395;BME280;49531;-34.520;150.798;2023-01-25T09:28:03;100415.84;;;27.07;59.82
63395;BME280;49531;-34.520;150.798;2023-01-25T09:30:37;100412.09;;;27.03;59.69
63395;BME280;49531;-34.520;150.798;2023-01-25T09:33:04;100416.75;;;27.03;59.87
63395;BME280;49531;-34.520;150.798;2023-01-25T09:35:31;100420.94;;;27.00;59.86
63395;BME280;49531;-34.520;150.798;2023-01-25T09:37:59;100419.31;;;26.99;59.89
63395;BME280;49531;-34.520;150.798;2023-01-25T09:40:31;100417.47;;;26.95;59.85
63395;BME280;49531;-34.520;150.798;2023-01-25T09:43:16;100421.88;;;26.96;60.08
63395;BME280;49531;-34.520;150.798;2023-01-25T09:45:47;100428.44;;;26.95;60.00
63395;BME280;49531;-34.520;150.798;2023-01-25T09:48:35;100429.25;;;26.95;59.97
63395;BME280;49531;-34.520;150.798;2023-01-25T09:51:20;100432.31;;;26.94;59.84
63395;BME280;49531;-34.520;150.798;2023-01-25T09:53:51;100439.53;;;26.89;59.93
63395;BME280;49531;-34.520;150.798;2023-01-25T09:56:25;100439.84;;;26.88;59.96
63395;BME280;49531;-34.520;150.798;2023-01-25T09:58:57;100446.94;;;26.89;59.94
63395;BME280;49531;-34.520;150.798;2023-01-25T10:01:35;100454.34;;;26.88;60.12
63395;BME280;49531;-34.520;150.798;2023-01-25T10:04:14;100451.09;;;26.86;60.03
63395;BME280;49531;-34.520;150.798;2023-01-25T10:06:43;100452.53;;;26.84;60.12
63395;BME280;49531;-34.520;150.798;2023-01-25T10:12:15;100459.13;;;26.83;60.23
63395;BME280;49531;-34.520;150.798;2023-01-25T10:14:45;100462.50;;;26.80;60.09
63395;BME280;49531;-34.520;150.798;2023-01-25T10:17:26;100462.81;;;26.78;60.25
63395;BME280;49531;-34.520;150.798;2023-01-25T10:20:23;100467.00;;;26.76;60.32
63395;BME280;49531;-34.520;150.798;2023-01-25T10:26:00;100484.84;;;26.73;60.07
63395;BME280;49531;-34.520;150.798;2023-01-25T10:28:40;100475.31;;;26.71;60.20
63395;BME280;49531;-34.520;150.798;2023-01-25T10:31:26;100464.66;;;26.69;60.26
63395;BME280;49531;-34.520;150.798;2023-01-25T10:33:55;100468.84;;;26.67;60.06
63395;BME280;49531;-34.520;150.798;2023-01-25T10:36:28;100464.16;;;26.67;60.30
63395;BME280;49531;-34.520;150.798;2023-01-25T10:38:55;100473.50;;;26.66;60.46
63395;BME280;49531;-34.520;150.798;2023-01-25T10:41:35;100475.75;;;26.64;60.31
63395;BME280;49531;-34.520;150.798;2023-01-25T10:44:04;100471.69;;;26.62;60.11
63395;BME280;49531;-34.520;150.798;2023-01-25T10:46:49;100481.03;;;26.61;60.37
63395;BME280;49531;-34.520;150.798;2023-01-25T10:49:23;100474.72;;;26.60;60.35
63395;BME280;49531;-34.520;150.798;2023-01-25T10:51:53;100475.53;;;26.61;60.52
63395;BME280;49531;-34.520;150.798;2023-01-25T10:54:22;100479.72;;;26.58;60.25
63395;BME280;49531;-34.520;150.798;2023-01-25T10:56:50;100482.25;;;26.54;60.51
63395;BME280;49531;-34.520;150.798;2023-01-25T10:59:23;100480.63;;;26.53;60.70
63395;BME280;49531;-34.520;150.798;2023-01-25T11:01:50;100477.06;;;26.53;60.42
63395;BME280;49531;-34.520;150.798;2023-01-25T11:04:26;100483.47;;;26.48;60.41
63395;BME280;49531;-34.520;150.798;2023-01-25T11:06:55;100495.75;;;26.51;60.65
63395;BME280;49531;-34.520;150.798;2023-01-25T11:09:33;100493.00;;;26.51;60.58
63395;BME280;49531;-34.520;150.798;2023-01-25T11:12:03;100491.69;;;26.48;60.54
63395;BME280;49531;-34.520;150.798;2023-01-25T11:14:33;100489.56;;;26.45;60.60
63395;BME280;49531;-34.520;150.798;2023-01-25T11:17:02;100496.66;;;26.46;60.68
63395;BME280;49531;-34.520;150.798;2023-01-25T11:19:36;100484.88;;;26.46;60.60
63395;BME280;49531;-34.520;150.798;2023-01-25T11:22:18;100488.75;;;26.45;60.63
63395;BME280;49531;-34.520;150.798;2023-01-25T11:24:46;100488.53;;;26.41;60.49
63395;BME280;49531;-34.520;150.798;2023-01-25T11:27:19;100489.66;;;26.40;60.71
63395;BME280;49531;-34.520;150.798;2023-01-25T11:30:08;100486.75;;;26.37;60.82
63395;BME280;49531;-34.520;150.798;2023-01-25T11:32:38;100476.41;;;26.34;60.84
63395;BME280;49531;-34.520;150.798;2023-01-25T11:35:13;100479.44;;;26.32;60.93
63395;BME280;49531;-34.520;150.798;2023-01-25T11:38:02;100472.03;;;26.33;61.00
63395;BME280;49531;-34.520;150.798;2023-01-25T11:40:57;100480.84;;;26.30;60.81
63395;BME280;49531;-34.520;150.798;2023-01-25T11:43:46;100474.53;;;26.29;60.70
63395;BME280;49531;-34.520;150.798;2023-01-25T11:46:32;100476.16;;;26.30;60.70
63395;BME280;49531;-34.520;150.798;2023-01-25T11:49:20;100480.63;;;26.26;60.72
63395;BME280;49531;-34.520;150.798;2023-01-25T11:52:15;100474.94;;;26.22;60.87
63395;BME280;49531;-34.520;150.798;2023-01-25T11:54:59;100469.78;;;26.21;60.93
63395;BME280;49531;-34.520;150.798;2023-01-25T11:57:49;100464.91;;;26.18;61.21
63395;BME280;49531;-34.520;150.798;2023-01-25T12:00:40;100461.66;;;26.16;61.01
63395;BME280;49531;-34.520;150.798;2023-01-25T12:03:38;100462.47;;;26.16;61.08
63395;BME280;49531;-34.520;150.798;2023-01-25T12:06:32;100461.97;;;26.14;61.06
63395;BME280;49531;-34.520;150.798;2023-01-25T12:09:16;100461.16;;;26.14;61.30
63395;BME280;49531;-34.520;150.798;2023-01-25T12:12:08;100457.41;;;26.10;61.08
63395;BME280;49531;-34.520;150.798;2023-01-25T12:15:07;100467.84;;;26.08;61.23
63395;BME280;49531;-34.520;150.798;2023-01-25T12:17:57;100462.38;;;26.08;61.26
63395;BME280;49531;-34.520;150.798;2023-01-25T12:20:40;100460.53;;;26.03;61.23
63395;BME280;49531;-34.520;150.798;2023-01-25T12:23:31;100466.00;;;26.03;61.40
63395;BME280;49531;-34.520;150.798;2023-01-25T12:26:12;100466.31;;;26.02;61.24
63395;BME280;49531;-34.520;150.798;2023-01-25T12:29:18;100464.22;;;25.99;61.41
63395;BME280;49531;-34.520;150.798;2023-01-25T12:32:04;100457.44;;;25.96;61.38
63395;BME280;49531;-34.520;150.798;2023-01-25T12:34:37;100456.59;;;25.96;61.40
63395;BME280;49531;-34.520;150.798;2023-01-25T12:37:27;100454.47;;;25.92;61.54
63395;BME280;49531;-34.520;150.798;2023-01-25T12:40:02;100455.59;;;25.91;61.40
63395;BME280;49531;-34.520;150.798;2023-01-25T12:42:46;100455.59;;;25.91;61.57
63395;BME280;49531;-34.520;150.798;2023-01-25T12:45:21;100463.59;;;25.88;61.55